Aérodrome :
LOGIN :

S'inscrire | Disclaimer

   EN    FR    IT 

 










Légende :    VFR   VFR Marginal   IFR   IFR Intensif   IFR Très Intensif
Visi : 
Plafond : 
>= 8 km
>= 3000ft
5 à 8 km
1000 à 3000 ft
1500m à 5 km
500 à 1000 ft
800 à 1500m
200 à 500 ft
< 800m
< 200 ft
Symboles :   Orages  Brouillard  Fortes neiges  Fortes précipitations  Vent > 20 kt
SIGMETs :   Divers  Orages  Givrage  Turbulence  Onde Orograph.  Cendres Volcan.







- Altitude de l'aérodrome : 124 ft
- Code IATA : NHT
- Voir les cartes d'approche


EGWU - RAF Northolt

DERNIER METAR :
  • 242350Z AUTO 13005KT 2700 // FEW021/// BKN040/// 15/14 Q1018

METARs EXPIRÉS :
  • 242250Z AUTO 13004KT 5000 // BKN027/// 15/14 Q1019
  • 242150Z AUTO 13004KT 6000 // BKN032/// SCT050/// 16/13 Q1019

TAF TAF EGWU
Valide du 24 à 21h jusqu'au 25 à 15h UTC


241942Z 2421/2515 14007KT 9999 FEW040
PROB40
TEMPO 2501/2509 7000 -RA
PROB30
TEMPO 2503/2510 3500 RA BR BKN020
Pas de NOTAMs connus pour ce terrain.



MET'MAP, la Météo Aéronautique d'un coup d'oeil ! - Copyright ORBIFLY Décembre 2007 - Disclaimer

ORBIFLY MET'MAP TEAM :

Programmation & Développement : Alexandra Zaïnal
Conception & Développement : Baudouin d'Aumeries
Co-Programmation & Développement : Marc-Olivier Méhu
Soutien technique & logistique : Manuel Goepfert

Contact : metmap@orbifly.com




SOURCES & CREDITS :

   NOAA